createdAt,value
2018-07-23T03:51:23.892Z,995.02
2018-07-23T03:52:23.853Z,995.02
2018-07-23T03:53:23.840Z,995.02
2018-07-23T03:54:23.818Z,995.02
2018-07-23T03:55:23.799Z,995.03
2018-07-23T03:56:23.786Z,995.05
2018-07-23T03:57:23.783Z,995.04
2018-07-23T03:58:23.751Z,995.07
2018-07-23T03:59:23.735Z,995.10
2018-07-23T04:00:23.728Z,995.07
2018-07-23T04:01:23.716Z,995.11
2018-07-23T04:02:23.684Z,995.10
2018-07-23T04:03:23.708Z,995.12
2018-07-23T04:04:23.651Z,995.12
2018-07-23T04:05:23.638Z,995.08
2018-07-23T04:06:23.627Z,995.13
2018-07-23T04:07:23.609Z,995.07
2018-07-23T04:08:23.591Z,995.09
2018-07-23T04:09:23.574Z,995.05
2018-07-23T04:10:23.556Z,995.08
2018-07-23T04:11:23.546Z,995.09
2018-07-23T04:12:23.526Z,995.09
2018-07-23T04:13:23.523Z,995.06
2018-07-23T04:14:23.504Z,995.09
2018-07-23T04:15:23.488Z,995.12
2018-07-23T04:16:23.463Z,995.11
2018-07-23T04:17:23.465Z,995.13
2018-07-23T04:18:23.437Z,995.14
2018-07-23T04:19:23.424Z,995.15
2018-07-23T04:20:23.414Z,995.19
2018-07-23T04:21:23.389Z,995.14
2018-07-23T04:22:23.376Z,995.16
2018-07-23T04:23:23.373Z,995.19
2018-07-23T04:24:23.344Z,995.18
2018-07-23T04:25:23.325Z,995.18
2018-07-23T04:26:23.322Z,995.21
2018-07-23T04:27:23.300Z,995.20
2018-07-23T04:28:23.296Z,995.19
2018-07-23T04:29:23.270Z,995.19
2018-07-23T04:30:23.247Z,995.20
2018-07-23T04:31:23.238Z,995.24
2018-07-23T04:32:23.225Z,995.23
2018-07-23T04:33:23.205Z,995.27
2018-07-23T04:34:23.199Z,995.27
2018-07-23T04:35:23.173Z,995.26
2018-07-23T04:36:23.167Z,995.29
2018-07-23T04:37:23.151Z,995.28
2018-07-23T04:38:23.135Z,995.31
2018-07-23T04:39:23.116Z,995.32
2018-07-23T04:40:23.106Z,995.29
2018-07-23T04:41:23.097Z,995.29
2018-07-23T04:42:23.109Z,995.34
2018-07-23T04:43:23.063Z,995.38
2018-07-23T04:44:23.042Z,995.36
2018-07-23T04:45:23.031Z,995.39
2018-07-23T04:46:23.025Z,995.40
2018-07-23T04:47:23.002Z,995.42
2018-07-23T04:48:23.012Z,995.46
2018-07-23T04:49:23.046Z,995.43
2018-07-23T04:50:23.038Z,995.48
2018-07-23T04:51:22.966Z,995.51
2018-07-23T04:52:22.932Z,995.50
2018-07-23T04:53:22.970Z,995.52
2018-07-23T04:54:22.916Z,995.52
2018-07-23T04:55:22.897Z,995.54
2018-07-23T04:56:22.907Z,995.55
2018-07-23T04:57:22.945Z,995.56
2018-07-23T04:58:22.862Z,995.53
2018-07-23T04:59:22.859Z,995.56
2018-07-23T05:00:22.840Z,995.51
2018-07-23T05:01:22.862Z,995.51
2018-07-23T05:02:22.799Z,995.50
2018-07-23T05:03:22.783Z,995.46
2018-07-23T05:04:22.768Z,995.51
2018-07-23T05:05:22.773Z,995.50
2018-07-23T05:06:22.760Z,995.52
2018-07-23T05:07:22.731Z,995.53
2018-07-23T05:08:22.721Z,995.52
2018-07-23T05:09:22.703Z,995.56
2018-07-23T05:10:22.738Z,995.60
2018-07-23T05:11:22.677Z,995.58
2018-07-23T05:12:22.699Z,995.61
2018-07-23T05:13:22.661Z,995.60
2018-07-23T05:14:22.633Z,995.61
2018-07-23T05:15:22.635Z,995.60
2018-07-23T05:16:22.610Z,995.57
2018-07-23T05:17:22.589Z,995.55
2018-07-23T05:18:22.586Z,995.57
2018-07-23T05:19:22.613Z,995.58
2018-07-23T05:20:22.556Z,995.59
2018-07-23T05:21:22.538Z,995.58
2018-07-23T05:22:22.527Z,995.59
2018-07-23T05:23:22.514Z,995.61
2018-07-23T05:24:22.552Z,995.60
2018-07-23T05:25:22.491Z,995.62
2018-07-23T05:26:22.473Z,995.61
2018-07-23T05:27:22.472Z,995.63
2018-07-23T05:28:22.447Z,995.63
2018-07-23T05:29:22.437Z,995.64
2018-07-23T05:30:22.424Z,995.65
2018-07-23T05:31:22.411Z,995.68
2018-07-23T05:32:22.425Z,995.68
2018-07-23T05:33:22.383Z,995.67
2018-07-23T05:34:22.379Z,995.68
2018-07-23T05:35:22.361Z,995.69
2018-07-23T05:36:22.341Z,995.68
2018-07-23T05:37:22.341Z,995.71
2018-07-23T05:38:22.398Z,995.71
2018-07-23T05:39:22.314Z,995.73
2018-07-23T05:40:22.337Z,995.75
2018-07-23T05:41:22.290Z,995.77
2018-07-23T05:42:22.287Z,995.79
2018-07-23T05:43:22.261Z,995.81
2018-07-23T05:44:22.274Z,995.79
2018-07-23T05:45:22.236Z,995.80
2018-07-23T05:46:22.227Z,995.78
2018-07-23T05:47:22.214Z,995.74
2018-07-23T05:48:22.208Z,995.77
2018-07-23T05:49:22.192Z,995.77
2018-07-23T05:50:22.175Z,995.80
2018-07-23T05:51:22.163Z,995.78
2018-07-23T05:52:22.147Z,995.78
2018-07-23T05:53:22.146Z,995.80
2018-07-23T05:54:22.143Z,995.82
2018-07-23T05:55:22.118Z,995.82
2018-07-23T05:56:22.115Z,995.80
2018-07-23T05:57:22.089Z,995.81
2018-07-23T05:58:22.083Z,995.78
2018-07-23T05:59:22.067Z,995.84
2018-07-23T06:00:22.067Z,995.84
2018-07-23T06:01:22.050Z,995.85
2018-07-23T06:02:22.040Z,995.87
2018-07-23T06:03:22.021Z,995.86
2018-07-23T06:04:22.008Z,995.82
2018-07-23T06:05:22.000Z,995.87
2018-07-23T06:06:22.051Z,995.81
2018-07-23T06:07:21.986Z,995.88
2018-07-23T06:08:22.003Z,995.87
2018-07-23T06:09:21.963Z,995.92
2018-07-23T06:10:21.973Z,995.90
2018-07-23T06:11:21.934Z,995.92
2018-07-23T06:12:21.945Z,995.93
2018-07-23T06:13:21.977Z,995.93
2018-07-23T06:14:21.905Z,995.93
2018-07-23T06:15:21.896Z,995.95
2018-07-23T06:16:21.888Z,995.93
2018-07-23T06:17:21.875Z,995.99
2018-07-23T06:18:21.915Z,995.99
2018-07-23T06:19:21.892Z,995.99
2018-07-23T06:20:21.846Z,996.00
2018-07-23T06:21:21.820Z,996.00
2018-07-23T06:22:21.817Z,996.03
2018-07-23T06:23:21.804Z,996.07
2018-07-23T06:24:21.795Z,996.06
2018-07-23T06:25:21.825Z,996.06
2018-07-23T06:26:21.769Z,996.07
2018-07-23T06:27:21.753Z,996.04
2018-07-23T06:28:21.750Z,996.09
2018-07-23T06:29:21.734Z,996.08
2018-07-23T06:30:21.780Z,996.10
2018-07-23T06:31:21.712Z,996.10
2018-07-23T06:32:21.738Z,996.10
2018-07-23T06:33:21.699Z,996.10
2018-07-23T06:34:21.686Z,996.14
2018-07-23T06:35:21.670Z,996.12
2018-07-23T06:36:21.665Z,996.14
2018-07-23T06:37:21.653Z,996.16
2018-07-23T06:38:21.644Z,996.16
2018-07-23T06:39:21.640Z,996.13
2018-07-23T06:40:21.627Z,996.13
2018-07-23T06:41:21.615Z,996.13
2018-07-23T06:42:21.602Z,996.14
2018-07-23T06:43:21.596Z,996.14
2018-07-23T06:44:21.583Z,996.16
2018-07-23T06:45:21.570Z,996.18
2018-07-23T06:46:21.558Z,996.18
2018-07-23T06:47:21.567Z,996.19
2018-07-23T06:48:21.547Z,996.21
2018-07-23T06:49:21.538Z,996.21
2018-07-23T06:50:21.531Z,996.21
2018-07-23T06:51:21.513Z,996.24
2018-07-23T06:52:21.503Z,996.23
2018-07-23T06:53:21.528Z,996.20
2018-07-23T06:54:21.490Z,996.23
2018-07-23T06:55:21.480Z,996.21
2018-07-23T06:56:21.475Z,996.21
2018-07-23T06:57:21.501Z,996.25
2018-07-23T06:58:21.451Z,996.30
2018-07-23T06:59:21.442Z,996.27
2018-07-23T07:00:21.427Z,996.28
2018-07-23T07:01:21.428Z,996.33
2018-07-23T07:02:21.418Z,996.31
2018-07-23T07:03:21.490Z,996.34
2018-07-23T07:04:21.397Z,996.34
2018-07-23T07:05:21.398Z,996.35
2018-07-23T07:06:21.445Z,996.37
2018-07-23T07:07:21.409Z,996.34
2018-07-23T07:08:21.370Z,996.36
2018-07-23T07:09:21.364Z,996.33
2018-07-23T07:10:21.354Z,996.35
2018-07-23T07:11:21.338Z,996.38
2018-07-23T07:12:21.335Z,996.38
2018-07-23T07:13:21.353Z,996.40
2018-07-23T07:14:21.323Z,996.41
2018-07-23T07:15:21.317Z,996.45
2018-07-23T07:16:21.307Z,996.45
2018-07-23T07:17:21.326Z,996.43
2018-07-23T07:18:21.300Z,996.45
2018-07-23T07:19:21.281Z,996.45
2018-07-23T07:20:21.271Z,996.44
2018-07-23T07:21:21.261Z,996.44
2018-07-23T07:22:21.265Z,996.44
2018-07-23T07:23:21.252Z,996.43
2018-07-23T07:24:21.275Z,996.44
2018-07-23T07:25:21.290Z,996.42
2018-07-23T07:26:21.226Z,996.43
2018-07-23T07:27:21.229Z,996.42
2018-07-23T07:28:21.220Z,996.40
2018-07-23T07:29:21.211Z,996.37
2018-07-23T07:30:21.200Z,996.41
2018-07-23T07:31:21.198Z,996.42
2018-07-23T07:32:21.191Z,996.45
2018-07-23T07:33:21.178Z,996.43
2018-07-23T07:34:21.190Z,996.43
2018-07-23T07:35:21.163Z,996.45
2018-07-23T07:36:21.159Z,996.46
2018-07-23T07:37:21.176Z,996.42
2018-07-23T07:38:21.205Z,996.44
2018-07-23T07:39:21.140Z,996.46
2018-07-23T07:40:21.137Z,996.46
2018-07-23T07:41:21.127Z,996.45
2018-07-23T07:42:21.121Z,996.47
2018-07-23T07:43:21.117Z,996.52
2018-07-23T07:44:21.104Z,996.51
2018-07-23T07:45:21.105Z,996.52
2018-07-23T07:46:21.123Z,996.49
2018-07-23T07:47:21.086Z,996.48
2018-07-23T07:48:21.089Z,996.48
2018-07-23T07:49:21.076Z,996.49
2018-07-23T07:50:21.070Z,996.49
2018-07-23T07:51:21.063Z,996.53
2018-07-23T07:52:21.060Z,996.50
2018-07-23T07:53:21.054Z,996.47
2018-07-23T07:54:21.050Z,996.44
2018-07-23T07:55:21.038Z,996.46
2018-07-23T07:56:21.038Z,996.45
2018-07-23T07:57:21.032Z,996.47
2018-07-23T07:58:21.031Z,996.44
2018-07-23T07:59:21.025Z,996.45
2018-07-23T08:00:21.012Z,996.45
2018-07-23T08:01:21.019Z,996.47
2018-07-23T08:02:21.006Z,996.45
2018-07-23T08:03:20.999Z,996.46
2018-07-23T08:04:21.000Z,996.45
2018-07-23T08:05:20.990Z,996.46
2018-07-23T08:06:20.983Z,996.49
2018-07-23T08:07:20.983Z,996.46
2018-07-23T08:08:20.980Z,996.43
2018-07-23T08:09:20.974Z,996.46
2018-07-23T08:10:20.961Z,996.46
2018-07-23T08:11:20.961Z,996.49
2018-07-23T08:12:20.962Z,996.47
2018-07-23T08:13:20.961Z,996.48
2018-07-23T08:14:20.955Z,996.49
2018-07-23T08:15:20.949Z,996.47
2018-07-23T08:16:20.945Z,996.48
2018-07-23T08:17:20.936Z,996.48
2018-07-23T08:18:20.929Z,996.48
2018-07-23T08:19:20.932Z,996.49
2018-07-23T08:20:20.929Z,996.52
2018-07-23T08:21:20.919Z,996.48
2018-07-23T08:22:20.913Z,996.51
2018-07-23T08:23:20.916Z,996.52
2018-07-23T08:24:20.907Z,996.51
2018-07-23T08:25:20.900Z,996.50
2018-07-23T08:26:20.902Z,996.51
2018-07-23T08:27:20.898Z,996.51
2018-07-23T08:28:20.906Z,996.46
2018-07-23T08:29:20.882Z,996.47
2018-07-23T08:30:20.881Z,996.45
2018-07-23T08:31:20.875Z,996.47
2018-07-23T08:32:20.928Z,996.48
2018-07-23T08:33:20.865Z,996.45
2018-07-23T08:34:20.861Z,996.48
2018-07-23T08:35:20.861Z,996.49
2018-07-23T08:36:20.855Z,996.50
2018-07-23T08:37:20.848Z,996.52
2018-07-23T08:38:20.842Z,996.53
2018-07-23T08:39:20.842Z,996.51
2018-07-23T08:40:20.839Z,996.53
2018-07-23T08:41:20.832Z,996.52
2018-07-23T08:42:20.826Z,996.56
2018-07-23T08:43:20.820Z,996.55
2018-07-23T08:44:20.816Z,996.56
2018-07-23T08:45:20.823Z,996.54
2018-07-23T08:46:20.810Z,996.57
2018-07-23T08:47:20.804Z,996.56
2018-07-23T08:48:20.803Z,996.54
2018-07-23T08:49:20.803Z,996.56
2018-07-23T08:50:20.798Z,996.53
2018-07-23T08:51:20.836Z,996.53
2018-07-23T08:52:20.783Z,996.52
2018-07-23T08:53:20.775Z,996.53
2018-07-23T08:54:20.778Z,996.52
2018-07-23T08:55:20.771Z,996.52
2018-07-23T08:56:20.766Z,996.57
2018-07-23T08:57:20.803Z,996.52
2018-07-23T08:58:20.768Z,996.56
2018-07-23T08:59:20.759Z,996.54
2018-07-23T09:00:20.758Z,996.54
2018-07-23T09:01:20.749Z,996.55
2018-07-23T09:02:20.752Z,996.55
2018-07-23T09:03:20.738Z,996.60
2018-07-23T09:04:20.736Z,996.59
2018-07-23T09:05:20.730Z,996.62
2018-07-23T09:06:20.733Z,996.62
2018-07-23T09:07:20.721Z,996.64
2018-07-23T09:08:20.774Z,996.61
2018-07-23T09:09:20.721Z,996.64
2018-07-23T09:10:20.714Z,996.62
2018-07-23T09:11:20.715Z,996.61
2018-07-23T09:12:20.708Z,996.58
2018-07-23T09:13:20.706Z,996.58
2018-07-23T09:14:20.699Z,996.60
2018-07-23T09:15:20.692Z,996.60
2018-07-23T09:16:20.689Z,996.62
2018-07-23T09:17:20.700Z,996.60
2018-07-23T09:18:20.683Z,996.59
2018-07-23T09:19:20.676Z,996.57
2018-07-23T09:20:20.673Z,996.60
2018-07-23T09:21:20.667Z,996.57
2018-07-23T09:22:20.662Z,996.61
2018-07-23T09:23:20.666Z,996.56
2018-07-23T09:24:20.659Z,996.58
2018-07-23T09:25:20.652Z,996.52
2018-07-23T09:26:20.647Z,996.53
2018-07-23T09:27:20.649Z,996.52
2018-07-23T09:28:20.636Z,996.50
2018-07-23T09:29:20.633Z,996.51
2018-07-23T09:30:20.630Z,996.53
2018-07-23T09:31:20.626Z,996.51
2018-07-23T09:32:20.623Z,996.52
2018-07-23T09:33:20.617Z,996.53
2018-07-23T09:34:20.624Z,996.53
2018-07-23T09:35:20.614Z,996.51
2018-07-23T09:36:20.614Z,996.55
2018-07-23T09:37:20.605Z,996.56
2018-07-23T09:38:20.608Z,996.54
2018-07-23T09:39:20.607Z,996.54
2018-07-23T09:40:20.598Z,996.58
2018-07-23T09:41:20.598Z,996.52
2018-07-23T09:42:20.588Z,996.54
2018-07-23T09:43:20.591Z,996.54
2018-07-23T09:44:20.610Z,996.57
2018-07-23T09:45:20.579Z,996.52
2018-07-23T09:46:20.581Z,996.54
2018-07-23T09:47:20.599Z,996.48
2018-07-23T09:48:20.575Z,996.51
2018-07-23T09:49:20.565Z,996.50
2018-07-23T09:50:20.569Z,996.49
2018-07-23T09:51:20.569Z,996.49
2018-07-23T09:52:20.562Z,996.47
2018-07-23T09:53:20.553Z,996.45
2018-07-23T09:54:20.550Z,996.47
2018-07-23T09:55:20.549Z,996.42
2018-07-23T09:56:20.583Z,996.42
2018-07-23T09:57:20.550Z,996.42
2018-07-23T09:58:20.537Z,996.46
2018-07-23T09:59:20.542Z,996.39
2018-07-23T10:00:20.534Z,996.44
2018-07-23T10:01:20.530Z,996.46
2018-07-23T10:02:20.527Z,996.42
2018-07-23T10:03:20.535Z,996.43
2018-07-23T10:04:20.517Z,996.46
2018-07-23T10:05:20.514Z,996.44
2018-07-23T10:06:20.520Z,996.45
2018-07-23T10:07:20.517Z,996.45
2018-07-23T10:08:20.505Z,996.45
2018-07-23T10:09:20.508Z,996.45
2018-07-23T10:10:20.502Z,996.40
2018-07-23T10:11:20.506Z,996.40
2018-07-23T10:12:20.492Z,996.37
2018-07-23T10:13:20.498Z,996.37
2018-07-23T10:14:20.495Z,996.36
2018-07-23T10:15:20.495Z,996.36
2018-07-23T10:16:20.489Z,996.33
2018-07-23T10:17:20.476Z,996.34
2018-07-23T10:18:20.483Z,996.34
2018-07-23T10:19:20.482Z,996.29
2018-07-23T10:20:20.479Z,996.29
2018-07-23T10:21:20.469Z,996.29
2018-07-23T10:22:20.473Z,996.28
2018-07-23T10:23:20.473Z,996.27
2018-07-23T10:24:20.463Z,996.26
2018-07-23T10:25:20.466Z,996.26
2018-07-23T10:26:20.460Z,996.24
2018-07-23T10:27:20.457Z,996.22
2018-07-23T10:28:20.457Z,996.21
2018-07-23T10:29:20.459Z,996.23
2018-07-23T10:30:20.457Z,996.23
2018-07-23T10:31:20.450Z,996.22
2018-07-23T10:32:20.454Z,996.26
2018-07-23T10:33:20.453Z,996.21
2018-07-23T10:34:20.451Z,996.26
2018-07-23T10:35:20.452Z,996.23
2018-07-23T10:36:20.444Z,996.26
2018-07-23T10:37:20.438Z,996.25
2018-07-23T10:38:20.438Z,996.27
2018-07-23T10:39:20.442Z,996.28
2018-07-23T10:40:20.440Z,996.28
2018-07-23T10:41:20.434Z,996.25
2018-07-23T10:42:20.434Z,996.24
2018-07-23T10:43:20.440Z,996.25
2018-07-23T10:44:20.445Z,996.24
2018-07-23T10:45:20.436Z,996.23
2018-07-23T10:46:20.434Z,996.23
2018-07-23T10:47:20.432Z,996.23
2018-07-23T10:48:20.440Z,996.21
2018-07-23T10:49:20.438Z,996.21
2018-07-23T10:50:20.434Z,996.21
2018-07-23T10:51:20.434Z,996.20
2018-07-23T10:52:20.447Z,996.20
2018-07-23T10:53:20.432Z,996.19
2018-07-23T10:54:20.438Z,996.22
2018-07-23T10:55:20.438Z,996.21
2018-07-23T10:56:20.431Z,996.21
2018-07-23T10:57:20.436Z,996.22
2018-07-23T10:58:20.441Z,996.25
2018-07-23T10:59:20.438Z,996.25
2018-07-23T11:00:20.446Z,996.24
2018-07-23T11:01:20.445Z,996.19
2018-07-23T11:02:20.442Z,996.18
2018-07-23T11:03:20.448Z,996.21
2018-07-23T11:04:20.501Z,996.20
2018-07-23T11:05:20.451Z,996.20
2018-07-23T11:06:20.448Z,996.23
2018-07-23T11:07:20.483Z,996.23
2018-07-23T11:08:20.454Z,996.21
2018-07-23T11:09:20.454Z,996.20
2018-07-23T11:10:20.460Z,996.23
2018-07-23T11:11:20.457Z,996.23
2018-07-23T11:12:20.460Z,996.23
2018-07-23T11:13:20.471Z,996.21
2018-07-23T11:14:20.467Z,996.27
2018-07-23T11:15:20.480Z,996.27
2018-07-23T11:16:20.480Z,996.27
2018-07-23T11:17:20.474Z,996.20
2018-07-23T11:18:20.480Z,996.22
2018-07-23T11:19:20.541Z,996.25
2018-07-23T11:20:20.486Z,996.22
2018-07-23T11:21:20.489Z,996.24
2018-07-23T11:22:20.492Z,996.23
2018-07-23T11:23:20.499Z,996.18
2018-07-23T11:24:20.498Z,996.24
2018-07-23T11:25:39.085Z,996.22
2018-07-23T11:26:20.524Z,996.19
2018-07-23T11:27:20.515Z,996.21
2018-07-23T11:28:20.509Z,996.19
2018-07-23T11:29:20.515Z,996.14
2018-07-23T11:30:20.541Z,996.18
2018-07-23T11:31:20.531Z,996.17
2018-07-23T11:32:20.535Z,996.18
2018-07-23T11:33:20.550Z,996.17
2018-07-23T11:34:20.541Z,996.17
2018-07-23T11:35:20.545Z,996.20
2018-07-23T11:36:20.553Z,996.18
2018-07-23T11:37:20.560Z,996.12
2018-07-23T11:38:20.567Z,996.14
2018-07-23T11:39:20.571Z,996.10
2018-07-23T11:40:20.573Z,996.08
2018-07-23T11:41:20.576Z,996.06
2018-07-23T11:42:20.590Z,996.11
2018-07-23T11:43:20.595Z,996.11
2018-07-23T11:44:20.596Z,996.13
2018-07-23T11:45:20.618Z,996.11
2018-07-23T11:46:24.983Z,996.12
2018-07-23T11:47:20.617Z,996.10
2018-07-23T11:48:20.617Z,996.09
2018-07-23T11:49:20.624Z,996.12
2018-07-23T11:50:20.630Z,996.12
2018-07-23T11:51:20.644Z,996.13
2018-07-23T11:52:20.643Z,996.17
2018-07-23T11:53:20.708Z,996.15
2018-07-23T11:54:20.663Z,996.15
2018-07-23T11:55:20.667Z,996.13
2018-07-23T11:56:20.674Z,996.07
2018-07-23T11:57:20.681Z,996.06
2018-07-23T11:58:20.687Z,996.08
2018-07-23T11:59:20.693Z,996.03
2018-07-23T12:00:20.699Z,996.03
2018-07-23T12:01:20.706Z,996.08
2018-07-23T12:02:20.709Z,996.06
2018-07-23T12:03:20.712Z,996.04
2018-07-23T12:04:20.755Z,996.02
2018-07-23T12:05:20.727Z,996.02
2018-07-23T12:06:20.834Z,995.94
2018-07-23T12:07:20.725Z,996.03
2018-07-23T12:08:20.725Z,995.98
2018-07-23T12:09:20.722Z,996.00
2018-07-23T12:10:20.726Z,996.01
2018-07-23T12:11:20.736Z,996.03
2018-07-23T12:12:20.726Z,995.97
2018-07-23T12:13:20.732Z,996.03
2018-07-23T12:14:20.740Z,996.01
2018-07-23T12:15:20.742Z,996.00
2018-07-23T12:16:20.745Z,996.03
2018-07-23T12:17:20.793Z,996.00
2018-07-23T12:18:20.750Z,995.94
2018-07-23T12:19:20.754Z,995.99
2018-07-23T12:20:20.760Z,995.97
2018-07-23T12:21:20.758Z,995.95
2018-07-23T12:22:20.763Z,995.93
2018-07-23T12:23:20.770Z,995.90
2018-07-23T12:24:20.773Z,995.89
2018-07-23T12:25:20.771Z,995.97
2018-07-23T12:26:20.783Z,995.90
2018-07-23T12:27:20.790Z,995.89
2018-07-23T12:28:20.784Z,995.88
2018-07-23T12:29:20.796Z,995.88
2018-07-23T12:30:20.805Z,995.85
2018-07-23T12:31:20.802Z,995.86
2018-07-23T12:32:20.815Z,995.78
2018-07-23T12:33:20.814Z,995.80
2018-07-23T12:34:20.815Z,995.80
2018-07-23T12:35:20.825Z,995.83
2018-07-23T12:36:20.831Z,995.77
2018-07-23T12:37:20.832Z,995.82
2018-07-23T12:38:20.838Z,995.80
2018-07-23T12:39:20.887Z,995.90
2018-07-23T12:40:20.838Z,995.84
2018-07-23T12:41:20.841Z,995.86
2018-07-23T12:42:20.840Z,995.82
2018-07-23T12:43:20.850Z,995.81
2018-07-23T12:44:20.844Z,995.83
2018-07-23T12:45:20.850Z,995.84
2018-07-23T12:46:20.858Z,995.85
2018-07-23T12:47:20.864Z,995.77
2018-07-23T12:48:20.857Z,995.82
2018-07-23T12:49:20.867Z,995.79
2018-07-23T12:50:20.864Z,995.85
2018-07-23T12:51:20.867Z,995.81
2018-07-23T12:52:20.874Z,995.84
2018-07-23T12:53:20.880Z,995.82
2018-07-23T12:54:20.883Z,995.81
2018-07-23T12:55:20.889Z,995.81
2018-07-23T12:56:20.891Z,995.81
2018-07-23T12:57:20.902Z,995.83
2018-07-23T12:58:20.898Z,995.84
2018-07-23T12:59:20.909Z,995.80
2018-07-23T13:00:20.915Z,995.88
2018-07-23T13:01:20.918Z,995.84
2018-07-23T13:02:20.921Z,995.83
2018-07-23T13:03:20.931Z,995.81
2018-07-23T13:04:20.940Z,995.82
2018-07-23T13:05:20.937Z,995.81
2018-07-23T13:06:20.964Z,995.75
2018-07-23T13:07:20.966Z,995.74
2018-07-23T13:08:20.960Z,995.74
2018-07-23T13:09:20.970Z,995.73
2018-07-23T13:10:20.969Z,995.72
2018-07-23T13:11:20.975Z,995.72
2018-07-23T13:12:20.985Z,995.68
2018-07-23T13:13:20.989Z,995.70
2018-07-23T13:14:21.010Z,995.69
2018-07-23T13:15:21.004Z,995.72
2018-07-23T13:16:21.010Z,995.73
2018-07-23T13:17:21.017Z,995.71
2018-07-23T13:18:21.052Z,995.72
2018-07-23T13:19:21.023Z,995.70
2018-07-23T13:20:21.072Z,995.70
2018-07-23T13:21:21.033Z,995.65
2018-07-23T13:22:21.036Z,995.64
2018-07-23T13:23:21.045Z,995.65
2018-07-23T13:24:21.041Z,995.67
2018-07-23T13:25:21.064Z,995.68
2018-07-23T13:26:21.064Z,995.69
2018-07-23T13:27:21.054Z,995.68
2018-07-23T13:28:21.065Z,995.69
2018-07-23T13:29:21.069Z,995.68
2018-07-23T13:30:21.072Z,995.70
2018-07-23T13:31:21.075Z,995.65
2018-07-23T13:32:21.118Z,995.66
2018-07-23T13:33:21.091Z,995.66
2018-07-23T13:34:21.102Z,995.67
2018-07-23T13:35:21.104Z,995.66
2018-07-23T13:36:21.107Z,995.64
2018-07-23T13:37:21.117Z,995.63
2018-07-23T13:38:21.140Z,995.62
2018-07-23T13:39:21.120Z,995.63
2018-07-23T13:40:21.124Z,995.62
2018-07-23T13:41:21.135Z,995.58
2018-07-23T13:42:21.139Z,995.56
2018-07-23T13:43:21.142Z,995.60
2018-07-23T13:44:21.146Z,995.61
2018-07-23T13:45:21.152Z,995.56
2018-07-23T13:46:21.186Z,995.59
2018-07-23T13:47:21.161Z,995.56
2018-07-23T13:48:21.168Z,995.54
2018-07-23T13:49:21.171Z,995.54
2018-07-23T13:50:21.181Z,995.56
2018-07-23T13:51:21.190Z,995.56
2018-07-23T13:52:21.187Z,995.57
2018-07-23T13:53:21.200Z,995.59
2018-07-23T13:54:21.231Z,995.54
2018-07-23T13:55:21.209Z,995.56
2018-07-23T13:56:21.216Z,995.52
2018-07-23T13:57:21.222Z,995.57
2018-07-23T13:58:21.228Z,995.47
2018-07-23T13:59:21.233Z,995.50
2018-07-23T14:00:21.233Z,995.45
2018-07-23T14:01:21.279Z,995.39
2018-07-23T14:02:21.251Z,995.42
2018-07-23T14:03:21.257Z,995.43
2018-07-23T14:04:21.257Z,995.39
2018-07-23T14:05:21.268Z,995.40
2018-07-23T14:06:21.278Z,995.40
2018-07-23T14:07:21.273Z,995.45
2018-07-23T14:08:21.279Z,995.42
2018-07-23T14:09:21.289Z,995.41
2018-07-23T14:10:21.293Z,995.42
2018-07-23T14:11:21.305Z,995.40
2018-07-23T14:12:21.309Z,995.40
2018-07-23T14:13:21.315Z,995.39
2018-07-23T14:14:21.319Z,995.41
2018-07-23T14:15:21.325Z,995.41
2018-07-23T14:16:21.337Z,995.41
2018-07-23T14:17:21.337Z,995.37
2018-07-23T14:18:21.341Z,995.41
2018-07-23T14:19:21.351Z,995.37
2018-07-23T14:20:21.357Z,995.35
2018-07-23T14:21:21.363Z,995.36
2018-07-23T14:22:21.409Z,995.33
2018-07-23T14:23:21.367Z,995.37
2018-07-23T14:24:21.379Z,995.35
2018-07-23T14:25:21.387Z,995.33
2018-07-23T14:26:21.382Z,995.34
2018-07-23T14:27:21.392Z,995.33
2018-07-23T14:28:21.395Z,995.36
2018-07-23T14:29:21.409Z,995.38
2018-07-23T14:30:21.494Z,995.32
2018-07-23T14:31:21.412Z,995.34
2018-07-23T14:32:21.414Z,995.30
2018-07-23T14:33:21.421Z,995.33
2018-07-23T14:34:21.424Z,995.29
2018-07-23T14:35:21.431Z,995.29
2018-07-23T14:36:21.440Z,995.29
2018-07-23T14:37:21.443Z,995.27
2018-07-23T14:38:21.450Z,995.27
2018-07-23T14:39:21.456Z,995.24
2018-07-23T14:40:21.459Z,995.23
2018-07-23T14:41:21.459Z,995.23
2018-07-23T14:42:21.462Z,995.22
2018-07-23T14:43:21.473Z,995.20
2018-07-23T14:44:21.476Z,995.21
2018-07-23T14:45:21.473Z,995.19
2018-07-23T14:46:21.486Z,995.19
2018-07-23T14:47:21.492Z,995.22
2018-07-23T14:48:21.492Z,995.19
2018-07-23T14:49:21.498Z,995.19
2018-07-23T14:50:21.500Z,995.18
2018-07-23T14:51:21.505Z,995.14
2018-07-23T14:52:21.505Z,995.14
2018-07-23T14:53:21.505Z,995.14
2018-07-23T14:54:21.518Z,995.11
2018-07-23T14:55:21.518Z,995.10
2018-07-23T14:56:21.527Z,995.13
2018-07-23T14:57:21.528Z,995.09
2018-07-23T14:58:21.540Z,995.09
2018-07-23T14:59:21.540Z,995.09
2018-07-23T15:00:21.544Z,995.08
2018-07-23T15:01:21.547Z,995.06
2018-07-23T15:02:21.550Z,995.09
2018-07-23T15:03:21.560Z,995.08
2018-07-23T15:04:21.560Z,995.02
2018-07-23T15:05:21.557Z,995.06
2018-07-23T15:06:21.566Z,995.02
2018-07-23T15:07:21.577Z,995.02
2018-07-23T15:08:21.579Z,995.01
2018-07-23T15:09:21.580Z,995.00
2018-07-23T15:10:21.583Z,994.98
2018-07-23T15:11:21.592Z,995.00
2018-07-23T15:12:21.592Z,994.97
2018-07-23T15:13:21.605Z,995.00
2018-07-23T15:14:21.605Z,995.03
2018-07-23T15:15:21.607Z,995.00
2018-07-23T15:16:21.609Z,994.99
2018-07-23T15:17:21.626Z,995.01
2018-07-23T15:18:21.619Z,995.01
2018-07-23T15:19:21.627Z,995.04
2018-07-23T15:20:21.631Z,995.02
2018-07-23T15:21:21.631Z,995.01
2018-07-23T15:22:21.641Z,995.01
2018-07-23T15:23:21.637Z,995.04
2018-07-23T15:24:21.660Z,995.02
2018-07-23T15:25:21.650Z,994.99
2018-07-23T15:26:21.650Z,994.99
2018-07-23T15:27:21.689Z,995.02
2018-07-23T15:28:21.656Z,995.00
2018-07-23T15:29:21.667Z,994.99
2018-07-23T15:30:21.663Z,995.01
2018-07-23T15:31:21.684Z,994.96
2018-07-23T15:32:21.677Z,994.98
2018-07-23T15:33:21.691Z,995.01
2018-07-23T15:34:21.686Z,995.00
2018-07-23T15:35:21.693Z,994.99
2018-07-23T15:36:21.690Z,994.98
2018-07-23T15:37:21.689Z,995.00
2018-07-23T15:38:21.696Z,995.02
2018-07-23T15:39:21.696Z,994.98
2018-07-23T15:40:21.702Z,994.98
2018-07-23T15:41:21.702Z,995.01
2018-07-23T15:42:21.712Z,994.99
2018-07-23T15:43:21.706Z,994.96
2018-07-23T15:44:21.836Z,994.97
2018-07-23T15:45:21.774Z,994.92
2018-07-23T15:46:21.826Z,994.92
2018-07-23T15:47:21.723Z,994.88
2018-07-23T15:48:21.722Z,994.92
2018-07-23T15:49:21.725Z,994.95
2018-07-23T15:50:21.726Z,994.92
2018-07-23T15:51:21.728Z,994.90
2018-07-23T15:52:21.732Z,994.89
2018-07-23T15:53:21.732Z,994.89
2018-07-23T15:54:21.740Z,994.92
2018-07-23T15:55:21.744Z,994.91
2018-07-23T15:56:21.750Z,994.87
2018-07-23T15:57:21.747Z,994.91
2018-07-23T15:58:21.744Z,994.90
2018-07-23T15:59:21.766Z,994.88
2018-07-23T16:00:21.750Z,994.91
2018-07-23T16:01:21.748Z,994.91
2018-07-23T16:02:21.751Z,994.89
2018-07-23T16:03:21.757Z,994.88
2018-07-23T16:04:21.757Z,994.87
2018-07-23T16:05:21.785Z,994.91
2018-07-23T16:06:21.760Z,994.93
2018-07-23T16:07:21.760Z,994.93
2018-07-23T16:08:21.761Z,994.91
2018-07-23T16:09:21.763Z,994.91
2018-07-23T16:10:21.760Z,994.92
2018-07-23T16:11:21.770Z,994.90
2018-07-23T16:12:21.769Z,994.90
2018-07-23T16:13:21.811Z,994.88
2018-07-23T16:14:21.763Z,994.89
2018-07-23T16:15:21.774Z,994.90
2018-07-23T16:16:21.786Z,994.91
2018-07-23T16:17:21.766Z,994.89
2018-07-23T16:18:21.766Z,994.81
2018-07-23T16:19:21.767Z,994.80